createdAt,value
2018-05-29T14:32:31.787Z,28.11
2018-05-29T14:35:01.681Z,28.34
2018-05-29T14:37:32.421Z,28.49
2018-05-29T14:40:02.486Z,28.57
2018-05-29T14:42:32.389Z,28.70
2018-05-29T14:45:05.219Z,28.80
2018-05-29T14:47:34.988Z,28.84
2018-05-29T14:50:07.706Z,28.94
2018-05-29T14:52:39.236Z,28.97
2018-05-29T14:55:09.825Z,29.00
2018-05-29T14:57:40.800Z,29.08
2018-05-29T15:00:12.495Z,29.12
2018-05-29T15:05:38.980Z,29.14
2018-05-29T15:08:09.404Z,29.21
2018-05-29T15:10:40.848Z,29.21
2018-05-29T15:13:13.835Z,29.27
2018-05-29T15:15:43.575Z,29.67
2018-05-29T15:18:13.214Z,29.89
2018-05-29T15:20:43.734Z,30.03
2018-05-29T15:23:16.563Z,30.14
2018-05-29T15:25:46.539Z,30.21
2018-05-29T15:28:16.610Z,30.26
2018-05-29T15:30:46.875Z,30.09
2018-05-29T15:33:17.055Z,30.29
2018-05-29T15:35:47.546Z,30.30
2018-05-29T15:38:21.265Z,30.11
2018-05-29T15:40:51.598Z,29.95
2018-05-29T15:43:22.016Z,29.81
2018-05-29T15:45:52.865Z,29.69
2018-05-29T15:48:23.366Z,29.60
2018-05-29T15:50:53.215Z,29.52
2018-05-29T15:53:24.234Z,29.44
2018-05-29T15:55:54.899Z,29.44
2018-05-29T15:58:24.592Z,29.37
2018-05-29T16:00:54.824Z,29.36
2018-05-29T16:03:25.735Z,29.32
2018-05-29T16:05:55.555Z,29.32
2018-05-29T16:08:25.806Z,29.33
2018-05-29T16:10:55.640Z,29.24
2018-05-29T16:13:25.608Z,29.37
2018-05-29T16:15:56.136Z,29.29
2018-05-29T16:18:25.975Z,29.39
2018-05-29T16:20:56.012Z,29.72
2018-05-29T16:23:26.738Z,29.92
2018-05-29T16:25:56.651Z,30.09
2018-05-29T16:28:27.727Z,30.18
2018-05-29T16:30:57.537Z,30.25
2018-05-29T16:33:27.593Z,30.31
2018-05-29T16:35:57.320Z,30.36
2018-05-29T16:38:28.382Z,30.44
2018-05-29T16:40:58.286Z,30.32
2018-05-29T16:43:28.342Z,30.10
2018-05-29T16:45:58.643Z,29.91
2018-05-29T16:48:29.563Z,29.90
2018-05-29T16:50:59.445Z,29.78
2018-05-29T16:53:30.022Z,29.68
2018-05-29T16:56:00.404Z,29.64
2018-05-29T16:58:30.927Z,29.57
2018-05-29T17:01:01.887Z,29.53
2018-05-29T17:03:32.233Z,29.50
2018-05-29T17:06:02.353Z,29.48
2018-05-29T17:08:32.847Z,29.45
2018-05-29T17:11:07.014Z,29.41
2018-05-29T17:13:37.668Z,29.59
2018-05-29T17:16:09.421Z,29.84
2018-05-29T17:18:43.279Z,30.00
2018-05-29T17:21:14.725Z,30.10
2018-05-29T17:23:44.695Z,30.16
2018-05-29T17:26:15.443Z,30.20
2018-05-29T17:28:46.072Z,30.21
2018-05-29T17:31:16.074Z,30.27
2018-05-29T17:33:46.655Z,30.34
2018-05-29T17:36:17.090Z,30.19
2018-05-29T17:38:49.402Z,29.93
2018-05-29T17:41:21.207Z,29.83
2018-05-29T17:43:54.126Z,29.71
2018-05-29T17:46:23.825Z,29.65
2018-05-29T17:48:55.094Z,29.56
2018-05-29T17:51:26.314Z,29.49
2018-05-29T17:53:57.336Z,29.48
2018-05-29T17:56:27.957Z,29.45
2018-05-29T17:58:58.610Z,29.39
2018-05-29T18:01:30.296Z,29.57
2018-05-29T18:04:02.216Z,29.84
2018-05-29T18:06:33.570Z,29.99
2018-05-29T18:09:11.248Z,30.13
2018-05-29T18:11:43.674Z,30.16
2018-05-29T18:14:14.414Z,30.30
2018-05-29T18:16:44.322Z,30.34
2018-05-29T18:19:14.327Z,30.35
2018-05-29T18:21:45.937Z,30.37
2018-05-29T18:24:17.192Z,30.36
2018-05-29T18:26:48.931Z,30.36
2018-05-29T18:29:21.730Z,30.29
2018-05-29T18:31:52.119Z,30.32
2018-05-29T18:34:22.375Z,30.31
2018-05-29T18:36:54.679Z,30.34
2018-05-29T18:39:29.054Z,30.32
2018-05-29T18:42:04.752Z,30.24
2018-05-29T18:44:37.504Z,30.13
2018-05-29T18:47:15.943Z,29.95
2018-05-29T18:49:47.147Z,29.78
2018-05-29T18:52:19.833Z,29.65
2018-05-29T18:54:51.459Z,29.51
2018-05-29T18:57:21.456Z,29.48
2018-05-29T18:59:53.769Z,29.45
2018-05-29T19:02:23.887Z,29.37
2018-05-29T19:04:54.279Z,29.31
2018-05-29T19:07:27.395Z,29.33
2018-05-29T19:10:02.703Z,29.28
2018-05-29T19:12:35.732Z,29.28
2018-05-29T19:15:08.697Z,29.49
2018-05-29T19:17:38.524Z,29.76
2018-05-29T19:20:13.397Z,29.86
2018-05-29T19:22:53.034Z,30.01
2018-05-29T19:25:26.553Z,30.06
2018-05-29T19:27:59.900Z,30.16
2018-05-29T19:30:34.775Z,30.22
2018-05-29T19:33:08.770Z,30.25
2018-05-29T19:35:44.971Z,30.30
2018-05-29T19:38:19.198Z,30.36
2018-05-29T19:40:49.634Z,30.36
2018-05-29T19:43:20.203Z,30.34
2018-05-29T19:45:50.201Z,30.29
2018-05-29T19:48:20.827Z,30.19
2018-05-29T19:50:51.352Z,30.09
2018-05-29T19:53:21.461Z,29.85
2018-05-29T19:55:51.450Z,29.86
2018-05-29T19:58:22.344Z,29.81
2018-05-29T20:00:53.182Z,29.84
2018-05-29T20:03:26.918Z,29.77
2018-05-29T20:05:57.615Z,29.76
2018-05-29T20:08:27.773Z,29.72
2018-05-29T20:10:57.836Z,29.66
2018-05-29T20:13:27.887Z,29.65
2018-05-29T20:15:58.452Z,29.59
2018-05-29T20:18:28.324Z,29.33
2018-05-29T20:20:58.666Z,29.47
2018-05-29T20:23:28.618Z,29.40
2018-05-29T20:25:58.394Z,29.44
2018-05-29T20:28:28.678Z,29.45
2018-05-29T20:30:58.538Z,29.49
2018-05-29T20:33:31.305Z,29.38
2018-05-29T20:36:02.314Z,29.38
2018-05-29T20:38:37.131Z,28.96
2018-05-29T20:41:10.521Z,28.80
2018-05-29T20:43:41.400Z,28.26
2018-05-29T20:46:14.058Z,28.19
2018-05-29T20:48:44.630Z,28.27
2018-05-29T20:51:14.354Z,28.33
2018-05-29T20:53:44.935Z,28.54
2018-05-29T20:56:15.037Z,28.12
2018-05-29T20:58:44.545Z,28.29
2018-05-29T21:01:14.442Z,28.32
2018-05-29T21:03:45.687Z,28.10
2018-05-29T21:06:16.388Z,28.36
2018-05-29T21:08:46.897Z,28.43
2018-05-29T21:11:16.933Z,28.68
2018-05-29T21:13:48.124Z,28.85
2018-05-29T21:16:19.753Z,28.94
2018-05-29T21:18:50.179Z,28.49
2018-05-29T21:21:20.333Z,27.99
2018-05-29T21:23:50.298Z,27.86
2018-05-29T21:26:19.925Z,27.56
2018-05-29T21:28:49.607Z,28.05
2018-05-29T21:31:19.602Z,27.74
2018-05-29T21:33:49.828Z,27.94
2018-05-29T21:36:19.731Z,27.66
2018-05-29T21:38:49.748Z,27.41
2018-05-29T21:41:19.347Z,27.38
2018-05-29T21:43:49.476Z,27.32
2018-05-29T21:46:19.675Z,27.58
2018-05-29T21:48:49.297Z,28.11
2018-05-29T21:51:18.877Z,28.23
2018-05-29T21:53:48.982Z,27.72
2018-05-29T21:56:19.051Z,27.20
2018-05-29T21:58:49.806Z,27.06
2018-05-29T22:01:19.556Z,26.94
2018-05-29T22:03:50.715Z,26.94
2018-05-29T22:06:20.615Z,26.98
2018-05-29T22:08:50.505Z,27.03
2018-05-29T22:11:20.539Z,26.80
2018-05-29T22:13:50.411Z,27.20
2018-05-29T22:16:19.976Z,27.11
2018-05-29T22:18:50.285Z,27.21
2018-05-29T22:21:26.051Z,27.28
2018-05-29T22:23:55.957Z,27.01
2018-05-29T22:26:26.373Z,26.65
2018-05-29T22:28:55.981Z,26.67
2018-05-29T22:31:26.100Z,26.64
2018-05-29T22:33:56.026Z,26.55
2018-05-29T22:36:29.231Z,26.67
2018-05-29T22:38:58.910Z,26.51
2018-05-29T22:41:30.907Z,26.62
2018-05-29T22:44:02.082Z,26.87
2018-05-29T22:46:43.869Z,26.78
2018-05-29T22:51:51.619Z,26.63
2018-05-29T22:54:22.360Z,26.77
2018-05-29T22:56:56.309Z,26.57
2018-05-29T22:59:27.252Z,26.57
2018-05-29T23:01:57.774Z,26.32
2018-05-29T23:04:35.800Z,26.47
2018-05-29T23:07:07.354Z,26.35
2018-05-29T23:12:28.929Z,26.44
2018-05-29T23:18:35.029Z,26.56
2018-05-29T23:21:06.222Z,26.59
2018-05-29T23:23:40.873Z,26.79
2018-05-29T23:26:53.828Z,26.78
2018-05-29T23:29:24.465Z,26.92
2018-05-29T23:32:08.015Z,26.82
2018-05-29T23:34:40.936Z,26.55
2018-05-29T23:37:10.920Z,26.37
2018-05-29T23:39:46.437Z,26.25
2018-05-29T23:42:20.413Z,26.33
2018-05-29T23:44:51.700Z,26.35
2018-05-29T23:47:31.869Z,26.36
2018-05-29T23:50:02.950Z,26.44
2018-05-29T23:52:33.201Z,26.34
2018-05-29T23:55:04.285Z,26.44
2018-05-29T23:57:35.021Z,26.38
